Time;durP1;ratioP1;P1;durP2;ratioP2;P2;SDS_P1;SDS_P2;PMS_P1;PMS_P2;Temp;Humidity;BMP_temperature;BMP_pressure;BME280_temperature;BME280_humidity;BME280_pressure;Samples;Min_cycle;Max_cycle;Signal;HPM_P1;HPM_P2
2023/09/16 00:01:02;;;;;;;4.20;3.60;;;11.60;99.90;;;;;;4993827;28;20168;-58
2023/09/16 00:03:27;;;;;;;4.18;3.78;;;11.60;99.90;;;;;;4994876;28;20149;-58
2023/09/16 00:05:53;;;;;;;5.28;3.38;;;11.60;99.90;;;;;;4994279;28;20034;-58
2023/09/16 00:08:19;;;;;;;3.70;3.40;;;11.50;99.90;;;;;;4996927;28;20081;-57
2023/09/16 00:10:45;;;;;;;4.07;3.67;;;11.50;99.90;;;;;;4993392;28;20046;-58
2023/09/16 00:13:11;;;;;;;5.43;4.15;;;11.50;99.90;;;;;;4990382;28;20050;-58
2023/09/16 00:15:36;;;;;;;4.35;3.30;;;11.50;99.90;;;;;;4986857;28;20062;-58
2023/09/16 00:18:02;;;;;;;3.97;3.67;;;11.50;99.90;;;;;;4992122;28;20088;-57
2023/09/16 00:20:28;;;;;;;6.05;3.55;;;11.40;99.90;;;;;;4987995;28;20661;-57
2023/09/16 00:22:54;;;;;;;3.60;3.30;;;11.30;99.90;;;;;;4993500;28;20014;-58
2023/09/16 00:25:19;;;;;;;4.32;3.28;;;11.30;99.90;;;;;;4993789;28;20030;-57
2023/09/16 00:27:45;;;;;;;4.47;3.33;;;11.20;99.90;;;;;;4989374;28;20502;-57
2023/09/16 00:30:11;;;;;;;6.88;3.28;;;11.20;99.90;;;;;;4992069;28;20034;-58
2023/09/16 00:32:37;;;;;;;3.50;3.20;;;11.10;99.90;;;;;;4992932;28;20030;-57
2023/09/16 00:35:03;;;;;;;3.65;3.40;;;11.10;99.90;;;;;;4994174;28;20030;-58
2023/09/16 00:37:29;;;;;;;3.75;2.65;;;11.00;99.90;;;;;;4982644;28;20037;-58
2023/09/16 00:39:55;;;;;;;3.70;3.40;;;11.00;99.90;;;;;;4986978;28;20035;-57
2023/09/16 00:42:21;;;;;;;3.20;2.90;;;11.00;99.90;;;;;;4996994;28;20029;-57
2023/09/16 00:44:47;;;;;;;3.95;3.03;;;11.00;99.90;;;;;;4993224;28;20037;-57
2023/09/16 00:47:13;;;;;;;4.38;3.55;;;11.00;99.90;;;;;;4989007;28;20042;-57
2023/09/16 00:49:39;;;;;;;3.30;3.10;;;11.00;99.90;;;;;;4992024;28;20073;-58
2023/09/16 00:52:05;;;;;;;4.97;3.70;;;11.00;99.90;;;;;;4994172;28;20049;-58
2023/09/16 00:54:31;;;;;;;3.70;3.30;;;11.00;99.90;;;;;;4990037;28;20414;-58
2023/09/16 00:56:59;;;;;;;3.55;3.28;;;11.00;99.90;;;;;;4990834;28;20034;-58
2023/09/16 00:59:25;;;;;;;3.35;3.05;;;11.00;99.90;;;;;;4983580;28;20040;-58
2023/09/16 01:01:53;;;;;;;3.40;3.20;;;10.90;99.90;;;;;;4987723;28;20026;-58
2023/09/16 01:04:21;;;;;;;3.42;3.13;;;10.90;99.90;;;;;;4981151;28;20034;-57
2023/09/16 01:06:50;;;;;;;4.68;3.58;;;10.90;99.90;;;;;;4982187;28;20038;-58
2023/09/16 01:09:17;;;;;;;3.50;3.20;;;10.80;99.90;;;;;;4997145;28;20033;-58
2023/09/16 01:11:43;;;;;;;5.13;3.13;;;10.80;99.90;;;;;;4979218;28;20035;-58
2023/09/16 01:14:11;;;;;;;4.45;3.13;;;10.80;99.90;;;;;;4988759;28;20113;-58
2023/09/16 01:16:46;;;;;;;4.15;3.72;;;10.70;99.90;;;;;;4990461;28;20552;-59
2023/09/16 01:19:20;;;;;;;3.63;3.33;;;10.70;99.90;;;;;;4985681;28;20045;-55
2023/09/16 01:21:48;;;;;;;3.58;3.28;;;10.70;99.90;;;;;;4987727;28;20041;-58
2023/09/16 01:24:23;;;;;;;3.78;3.40;;;10.70;99.90;;;;;;4984735;28;20034;-58
2023/09/16 01:26:49;;;;;;;3.67;3.35;;;10.70;99.90;;;;;;4985206;28;20065;-58
2023/09/16 01:29:16;;;;;;;3.55;3.05;;;10.60;99.90;;;;;;4988518;28;20041;-58
2023/09/16 01:31:43;;;;;;;6.72;3.33;;;10.60;99.90;;;;;;4988812;28;20497;-58
2023/09/16 01:34:33;;;;;;;3.95;3.20;;;10.60;99.90;;;;;;4985139;28;20038;-56
2023/09/16 01:37:00;;;;;;;3.35;3.05;;;10.60;99.90;;;;;;4984791;28;20070;-57
2023/09/16 01:39:32;;;;;;;4.68;3.15;;;10.50;99.90;;;;;;4991532;28;20226;-58
2023/09/16 01:41:59;;;;;;;4.35;3.58;;;10.50;99.90;;;;;;4991987;28;20027;-57
2023/09/16 01:44:25;;;;;;;3.80;3.50;;;10.40;99.90;;;;;;4989480;28;20034;-57
2023/09/16 01:46:54;;;;;;;3.45;3.15;;;10.40;99.90;;;;;;4989107;28;20026;-57
2023/09/16 01:49:20;;;;;;;7.18;4.03;;;10.40;99.90;;;;;;4981802;28;20030;-57
2023/09/16 01:51:46;;;;;;;4.10;3.80;;;10.40;99.90;;;;;;4987522;28;20092;-58
2023/09/16 01:54:11;;;;;;;4.18;3.78;;;10.40;99.90;;;;;;4985936;28;20042;-57
2023/09/16 01:56:37;;;;;;;3.85;3.53;;;10.40;99.90;;;;;;4992980;28;20042;-58
2023/09/16 01:59:03;;;;;;;4.32;3.92;;;10.50;99.90;;;;;;4996817;28;20087;-58
2023/09/16 02:01:29;;;;;;;91.00;9.10;;;10.50;99.90;;;;;;4990841;28;20031;-57
2023/09/16 02:03:55;;;;;;;1999.90;999.90;;;10.40;99.90;;;;;;4997635;28;20510;-58
2023/09/16 02:06:21;;;;;;;1999.90;999.90;;;10.40;99.90;;;;;;4995237;28;20035;-58
2023/09/16 02:08:46;;;;;;;1999.90;999.90;;;10.40;99.90;;;;;;4993896;28;20041;-58
2023/09/16 02:11:12;;;;;;;1999.90;999.90;;;10.40;99.90;;;;;;4988050;28;20101;-58
2023/09/16 02:13:38;;;;;;;254.93;28.75;;;10.40;99.90;;;;;;4982822;28;20482;-57
2023/09/16 02:16:04;;;;;;;1999.90;999.90;;;10.40;99.90;;;;;;4982466;28;20035;-58
2023/09/16 02:18:29;;;;;;;1999.90;999.90;;;10.30;99.90;;;;;;4985524;28;20367;-58
2023/09/16 02:20:55;;;;;;;145.55;135.73;;;10.40;99.90;;;;;;5008078;28;20058;-57
2023/09/16 02:23:22;;;;;;;1999.90;999.90;;;10.30;99.90;;;;;;4989585;28;20031;-58
2023/09/16 02:25:47;;;;;;;38.28;36.80;;;10.30;99.90;;;;;;4989595;28;20056;-57
2023/09/16 02:28:13;;;;;;;1999.90;999.90;;;10.30;99.90;;;;;;4991015;28;20498;-57
2023/09/16 02:30:39;;;;;;;1999.90;999.90;;;10.30;99.90;;;;;;4987029;28;20046;-58
2023/09/16 02:33:05;;;;;;;1999.90;999.90;;;10.30;99.90;;;;;;5002128;28;20045;-57
2023/09/16 02:35:30;;;;;;;1505.63;755.33;;;10.20;99.90;;;;;;4983187;28;20042;-57
2023/09/16 02:37:58;;;;;;;1999.90;999.90;;;10.20;99.90;;;;;;4983397;28;20069;-57
2023/09/16 02:40:24;;;;;;;1999.90;999.90;;;10.10;99.90;;;;;;4987401;28;20050;-57
2023/09/16 02:42:50;;;;;;;1999.90;999.90;;;10.10;99.90;;;;;;4987254;28;20027;-59
2023/09/16 02:45:16;;;;;;;1999.90;999.90;;;10.10;99.90;;;;;;4990085;28;20030;-60
2023/09/16 02:47:41;;;;;;;1999.90;999.90;;;10.10;99.90;;;;;;4989546;28;20038;-60
2023/09/16 02:50:07;;;;;;;1999.90;999.90;;;10.10;99.90;;;;;;4986649;28;20025;-60
2023/09/16 02:52:33;;;;;;;1999.90;999.90;;;10.10;99.90;;;;;;4986385;28;20033;-60
2023/09/16 02:54:59;;;;;;;1999.90;999.90;;;10.00;99.90;;;;;;4986174;28;20042;-60
2023/09/16 02:57:24;;;;;;;1999.90;999.90;;;10.00;99.90;;;;;;4976950;28;20038;-60
2023/09/16 02:59:52;;;;;;;160.88;25.73;;;10.10;99.90;;;;;;4988618;28;20041;-59
2023/09/16 03:02:17;;;;;;;1999.90;999.90;;;10.10;99.90;;;;;;4983164;28;20096;-60
2023/09/16 03:04:43;;;;;;;1538.53;768.58;;;10.10;99.90;;;;;;4986049;28;20034;-59
2023/09/16 03:07:10;;;;;;;164.63;22.95;;;10.10;99.90;;;;;;4990457;28;20511;-61
2023/09/16 03:09:35;;;;;;;2.78;2.33;;;10.00;99.90;;;;;;4988930;28;20026;-61
2023/09/16 03:12:01;;;;;;;1999.90;999.90;;;10.00;99.90;;;;;;4995333;28;20032;-61
2023/09/16 03:14:27;;;;;;;1505.45;754.08;;;10.00;99.90;;;;;;4990385;28;20096;-61
2023/09/16 03:16:55;;;;;;;1547.20;760.70;;;9.90;99.90;;;;;;4978619;28;20045;-60
2023/09/16 03:19:21;;;;;;;165.13;76.18;;;9.90;99.90;;;;;;4996196;28;20410;-60
2023/09/16 03:21:47;;;;;;;267.40;65.55;;;9.90;99.90;;;;;;4992997;28;20030;-60
2023/09/16 03:24:12;;;;;;;51.25;4.70;;;9.90;99.90;;;;;;4992021;28;20033;-61
2023/09/16 03:26:38;;;;;;;0.70;0.70;;;9.90;99.90;;;;;;4995985;28;20033;-60
2023/09/16 03:29:04;;;;;;;1.42;1.33;;;9.80;99.90;;;;;;4993091;28;20109;-60
2023/09/16 03:31:29;;;;;;;1.67;1.10;;;9.80;99.90;;;;;;4986574;28;20054;-59
2023/09/16 03:33:55;;;;;;;1.42;1.33;;;9.70;99.90;;;;;;4988153;28;20038;-60
2023/09/16 03:36:22;;;;;;;1999.90;999.90;;;9.60;99.90;;;;;;4993080;28;20179;-61
2023/09/16 03:38:50;;;;;;;1999.90;999.90;;;9.60;99.90;;;;;;4992976;28;20058;-60
2023/09/16 03:41:17;;;;;;;1999.90;999.90;;;9.50;99.90;;;;;;4993145;28;20022;-60
2023/09/16 03:43:43;;;;;;;1999.90;999.90;;;9.50;99.90;;;;;;4994306;28;20081;-60
2023/09/16 03:46:09;;;;;;;1999.90;999.90;;;9.40;99.90;;;;;;4996981;28;20103;-60
2023/09/16 03:48:34;;;;;;;1999.90;999.90;;;9.40;99.90;;;;;;4985271;28;20041;-59
2023/09/16 03:51:01;;;;;;;1999.90;999.90;;;9.50;99.90;;;;;;4985822;28;20031;-60
2023/09/16 03:53:27;;;;;;;1999.90;999.90;;;9.50;99.90;;;;;;4985101;28;20038;-59
2023/09/16 03:55:52;;;;;;;1999.90;999.90;;;9.50;99.90;;;;;;4990992;28;20983;-60
2023/09/16 03:58:19;;;;;;;43.65;28.83;;;9.50;99.90;;;;;;4992734;28;20105;-60
2023/09/16 04:00:44;;;;;;;2.63;2.42;;;9.50;99.90;;;;;;4988470;28;20022;-59
2023/09/16 04:03:11;;;;;;;2.50;2.30;;;9.60;99.90;;;;;;4992349;28;20030;-59
2023/09/16 04:05:37;;;;;;;4.38;2.88;;;9.60;99.90;;;;;;4987586;28;20066;-58
2023/09/16 04:08:03;;;;;;;36.58;34.92;;;9.60;99.90;;;;;;4984180;28;20080;-59
2023/09/16 04:10:28;;;;;;;4.10;3.70;;;9.60;99.90;;;;;;4986672;28;20402;-61
2023/09/16 04:12:54;;;;;;;4.25;3.85;;;9.60;99.90;;;;;;4990815;28;20027;-60
2023/09/16 04:15:20;;;;;;;3.22;3.03;;;9.60;99.90;;;;;;4978984;28;20076;-59
2023/09/16 04:17:45;;;;;;;4.60;3.25;;;9.60;99.90;;;;;;4993603;28;20031;-59
2023/09/16 04:20:11;;;;;;;3.40;3.10;;;9.60;99.90;;;;;;4989693;28;20090;-60
2023/09/16 04:22:37;;;;;;;3.58;3.28;;;9.50;99.90;;;;;;4989166;28;20032;-59
2023/09/16 04:25:03;;;;;;;3.33;2.50;;;9.50;99.90;;;;;;4981397;28;20038;-60
2023/09/16 04:27:28;;;;;;;2.65;2.45;;;9.50;99.90;;;;;;4984495;28;20038;-60
2023/09/16 04:29:54;;;;;;;2.95;2.72;;;9.40;99.90;;;;;;4984172;28;20088;-59
2023/09/16 04:32:20;;;;;;;3.03;2.75;;;9.40;99.90;;;;;;4987486;28;20125;-59
2023/09/16 04:34:45;;;;;;;3.50;3.20;;;9.40;99.90;;;;;;4986707;28;20035;-60
2023/09/16 04:37:11;;;;;;;3.20;3.00;;;9.40;99.90;;;;;;4986373;28;20121;-60
2023/09/16 04:39:36;;;;;;;3.65;3.35;;;9.40;99.90;;;;;;4985945;28;20074;-60
2023/09/16 04:42:02;;;;;;;2.95;2.75;;;9.50;99.90;;;;;;4992430;28;20035;-60
2023/09/16 04:44:29;;;;;;;3.35;3.05;;;9.50;99.90;;;;;;4988473;28;20046;-60
2023/09/16 04:46:55;;;;;;;2.90;2.67;;;9.60;99.90;;;;;;4990836;28;20033;-60
2023/09/16 04:49:21;;;;;;;4.00;3.42;;;9.60;99.90;;;;;;4993553;28;20041;-60
2023/09/16 04:51:47;;;;;;;3.17;2.88;;;9.70;99.90;;;;;;4991497;28;20042;-58
2023/09/16 04:54:13;;;;;;;3.05;2.85;;;9.70;99.90;;;;;;4992631;28;20040;-59
2023/09/16 04:56:39;;;;;;;3.28;3.08;;;9.70;99.90;;;;;;4989782;28;20117;-61
2023/09/16 04:59:05;;;;;;;3.20;3.00;;;9.80;99.90;;;;;;4987577;28;20169;-60
2023/09/16 05:01:31;;;;;;;3.20;3.00;;;9.80;99.90;;;;;;4992124;28;20034;-60
2023/09/16 05:03:57;;;;;;;4.25;3.10;;;9.80;99.90;;;;;;4993734;28;20030;-61
2023/09/16 05:06:23;;;;;;;3.10;2.90;;;9.90;99.90;;;;;;4989862;28;20600;-60
2023/09/16 05:08:49;;;;;;;1999.90;999.90;;;9.90;99.90;;;;;;4992469;28;20035;-61
2023/09/16 05:11:15;;;;;;;1999.90;999.90;;;9.80;99.90;;;;;;4997516;28;20578;-60
2023/09/16 05:13:41;;;;;;;223.68;39.58;;;9.80;99.90;;;;;;4990104;28;20041;-61
2023/09/16 05:16:10;;;;;;;4.60;4.30;;;9.80;99.90;;;;;;4991159;28;20035;-60
2023/09/16 05:18:36;;;;;;;6.13;4.93;;;9.80;99.90;;;;;;4990809;28;20045;-59
2023/09/16 05:21:02;;;;;;;6.72;4.72;;;9.80;99.90;;;;;;4982972;28;20475;-60
2023/09/16 05:23:30;;;;;;;7.35;3.92;;;9.80;99.90;;;;;;4991254;28;20034;-60
2023/09/16 05:25:56;;;;;;;4.65;4.10;;;9.70;99.90;;;;;;4987474;28;20034;-62
2023/09/16 05:28:22;;;;;;;4.60;3.60;;;9.70;99.90;;;;;;4982183;28;20039;-60
2023/09/16 05:30:48;;;;;;;5.88;3.83;;;9.70;99.90;;;;;;4999260;28;20034;-59
2023/09/16 05:33:14;;;;;;;5.40;4.38;;;9.70;99.90;;;;;;4989510;28;20041;-60
2023/09/16 05:35:41;;;;;;;4.63;4.13;;;9.80;99.90;;;;;;4988027;28;20034;-60
2023/09/16 05:38:07;;;;;;;5.60;4.28;;;9.80;99.90;;;;;;4985925;28;20031;-60
2023/09/16 05:40:38;;;;;;;3.97;3.63;;;9.80;99.90;;;;;;4987424;28;20064;-60
2023/09/16 05:43:03;;;;;;;4.30;3.90;;;9.80;99.90;;;;;;4992686;28;20053;-60
2023/09/16 05:45:30;;;;;;;4.35;4.05;;;9.90;99.90;;;;;;4990534;28;20560;-60
2023/09/16 05:47:56;;;;;;;4.93;4.43;;;9.90;99.90;;;;;;4988079;28;20453;-60
2023/09/16 05:50:21;;;;;;;4.68;4.28;;;10.00;99.90;;;;;;4986274;28;20026;-60
2023/09/16 05:52:47;;;;;;;4.25;3.85;;;10.10;99.90;;;;;;4986669;28;20041;-61
2023/09/16 05:55:13;;;;;;;3.78;3.47;;;10.10;99.90;;;;;;4994573;28;20038;-60
2023/09/16 05:57:38;;;;;;;5.07;3.55;;;10.20;99.90;;;;;;4989135;28;20053;-60
2023/09/16 06:00:05;;;;;;;4.65;4.15;;;10.30;99.90;;;;;;4983709;28;20039;-60
2023/09/16 06:02:34;;;;;;;958.45;127.30;;;10.40;99.90;;;;;;4982290;28;20039;-61
2023/09/16 06:04:59;;;;;;;4.60;4.20;;;10.40;99.90;;;;;;4984061;28;20034;-58
2023/09/16 06:07:25;;;;;;;5.13;3.72;;;10.50;99.90;;;;;;4991354;28;20394;-61
2023/09/16 06:09:51;;;;;;;4.88;3.92;;;10.60;99.90;;;;;;4984176;28;21247;-60
2023/09/16 06:12:17;;;;;;;4.22;3.83;;;10.60;99.90;;;;;;4984356;28;20039;-61
2023/09/16 06:14:42;;;;;;;4.57;4.18;;;10.70;99.90;;;;;;4985958;28;20030;-60
2023/09/16 06:17:08;;;;;;;4.60;4.05;;;10.70;99.90;;;;;;4981586;28;20043;-60
2023/09/16 06:19:34;;;;;;;4.88;4.47;;;10.80;99.90;;;;;;4983978;28;20034;-60
2023/09/16 06:21:59;;;;;;;4.07;3.67;;;10.90;99.90;;;;;;4990960;28;20034;-60
2023/09/16 06:24:25;;;;;;;4.18;3.78;;;10.90;99.90;;;;;;4983408;28;20131;-60
2023/09/16 06:26:52;;;;;;;4.38;4.07;;;11.00;99.90;;;;;;4991332;28;20103;-61
2023/09/16 06:29:17;;;;;;;4.15;3.75;;;11.10;99.90;;;;;;4991495;28;20104;-62
2023/09/16 06:31:43;;;;;;;6.85;3.83;;;11.20;99.90;;;;;;4987146;28;20536;-61
2023/09/16 06:34:08;;;;;;;4.18;3.80;;;11.30;99.90;;;;;;4985655;28;20049;-60
2023/09/16 06:36:34;;;;;;;4.05;3.60;;;11.40;99.90;;;;;;4982990;28;20042;-61
2023/09/16 06:39:00;;;;;;;3.85;3.55;;;11.50;99.90;;;;;;4988511;28;20501;-60
2023/09/16 06:41:26;;;;;;;4.22;3.55;;;11.60;99.90;;;;;;4989989;28;20576;-62
2023/09/16 06:43:51;;;;;;;3.90;3.60;;;11.80;99.90;;;;;;4995158;28;20018;-61
2023/09/16 06:46:17;;;;;;;4.30;3.90;;;11.90;99.90;;;;;;4995434;28;20506;-61
2023/09/16 06:48:45;;;;;;;3.80;3.50;;;12.00;99.90;;;;;;4987574;28;20038;-57
2023/09/16 06:51:10;;;;;;;3.88;3.25;;;12.10;99.90;;;;;;4985760;28;20034;-58
2023/09/16 06:53:36;;;;;;;4.32;3.53;;;12.20;99.90;;;;;;4988094;28;20042;-58
2023/09/16 06:56:02;;;;;;;3.95;3.42;;;12.30;99.90;;;;;;4987903;28;20030;-59
2023/09/16 06:58:28;;;;;;;4.05;3.45;;;12.40;99.90;;;;;;4986679;28;20053;-58
2023/09/16 07:00:53;;;;;;;4.30;3.50;;;12.60;99.90;;;;;;4988368;28;20031;-58
2023/09/16 07:03:20;;;;;;;4.10;3.72;;;12.60;99.90;;;;;;4982633;28;20030;-59
2023/09/16 07:05:49;;;;;;;4.32;3.92;;;12.80;99.90;;;;;;4983870;28;20100;-57
2023/09/16 07:08:17;;;;;;;5.05;2.83;;;12.90;99.90;;;;;;4978840;28;20446;-57
2023/09/16 07:10:42;;;;;;;4.55;3.50;;;13.00;99.90;;;;;;4986584;28;20014;-58
2023/09/16 07:13:08;;;;;;;3.55;3.25;;;13.10;99.90;;;;;;4983064;28;20089;-58
2023/09/16 07:15:35;;;;;;;12.05;4.57;;;13.20;99.90;;;;;;4988365;28;20041;-58
2023/09/16 07:18:01;;;;;;;4.00;3.50;;;13.40;99.90;;;;;;4990380;28;20057;-58
2023/09/16 07:20:26;;;;;;;6.47;2.97;;;13.50;99.90;;;;;;4994620;28;20561;-58
2023/09/16 07:22:55;;;;;;;5.18;2.85;;;13.60;99.90;;;;;;4998078;28;20022;-58
2023/09/16 07:25:21;;;;;;;3.08;2.78;;;13.70;99.90;;;;;;4993319;28;20034;-58
2023/09/16 07:27:46;;;;;;;3.47;3.17;;;13.80;99.90;;;;;;4997475;28;20088;-59
2023/09/16 07:30:14;;;;;;;3.08;2.78;;;14.00;99.90;;;;;;4989337;28;20039;-59
2023/09/16 07:32:41;;;;;;;3.67;3.33;;;14.10;99.90;;;;;;4997669;28;20248;-57
2023/09/16 07:35:07;;;;;;;4.22;3.78;;;14.20;99.90;;;;;;4992340;28;20026;-58
2023/09/16 07:37:33;;;;;;;3.15;2.95;;;14.40;99.90;;;;;;4980248;28;20035;-57
2023/09/16 07:39:59;;;;;;;3.25;2.95;;;14.40;99.90;;;;;;4984018;28;20037;-58
2023/09/16 07:42:24;;;;;;;3.40;3.03;;;14.50;99.90;;;;;;4992206;28;20084;-57
2023/09/16 07:44:50;;;;;;;3.50;3.20;;;14.70;99.90;;;;;;4990032;28;20381;-57
2023/09/16 07:47:15;;;;;;;3.30;3.00;;;14.80;99.90;;;;;;4990191;28;20097;-58
2023/09/16 07:49:41;;;;;;;3.20;2.90;;;14.90;99.90;;;;;;4983339;28;20030;-58
2023/09/16 07:52:07;;;;;;;3.33;3.00;;;15.10;99.90;;;;;;4986894;28;20043;-58
2023/09/16 07:54:32;;;;;;;1999.90;999.90;;;15.20;99.90;;;;;;4983356;28;20027;-58
2023/09/16 07:56:58;;;;;;;1999.90;999.90;;;15.40;99.90;;;;;;4982951;28;20097;-59
2023/09/16 07:59:25;;;;;;;1999.90;999.90;;;15.50;99.90;;;;;;4990264;28;20490;-59
2023/09/16 08:01:51;;;;;;;1999.90;999.90;;;15.60;99.90;;;;;;4988472;28;20519;-58
2023/09/16 08:04:17;;;;;;;1999.90;999.90;;;15.70;99.90;;;;;;4991494;28;20070;-58
2023/09/16 08:06:42;;;;;;;1999.90;999.90;;;15.80;99.90;;;;;;4993186;28;20037;-58
2023/09/16 08:09:08;;;;;;;1999.90;999.90;;;15.90;99.90;;;;;;4986311;28;20096;-59
2023/09/16 08:11:34;;;;;;;1999.90;999.90;;;16.00;99.90;;;;;;4996001;28;20037;-58
2023/09/16 08:13:59;;;;;;;197.65;44.45;;;16.10;99.90;;;;;;4998071;28;20026;-57
2023/09/16 08:16:25;;;;;;;215.45;71.65;;;16.20;99.90;;;;;;4991323;28;20105;-58
2023/09/16 08:18:50;;;;;;;7.90;2.65;;;16.30;99.90;;;;;;4989674;28;20035;-58
2023/09/16 08:21:16;;;;;;;2.15;1.40;;;16.50;99.90;;;;;;4988521;28;20457;-58
2023/09/16 08:23:42;;;;;;;1999.90;999.90;;;16.70;99.90;;;;;;4995283;28;20141;-59
2023/09/16 08:26:07;;;;;;;1999.90;999.90;;;16.80;99.90;;;;;;4990432;28;20046;-58
2023/09/16 08:28:35;;;;;;;1999.90;999.90;;;16.90;99.90;;;;;;4990166;28;20038;-59
2023/09/16 08:31:02;;;;;;;1999.90;999.90;;;17.10;99.90;;;;;;4985353;28;20038;-59
2023/09/16 08:33:27;;;;;;;1999.90;999.90;;;17.20;99.90;;;;;;4981060;28;20084;-58
2023/09/16 08:35:53;;;;;;;1999.90;999.90;;;17.40;99.90;;;;;;4983872;28;20585;-58
2023/09/16 08:38:19;;;;;;;1999.90;999.90;;;17.50;99.90;;;;;;4987431;28;20026;-58
2023/09/16 08:40:49;;;;;;;2.40;2.20;;;17.70;99.90;;;;;;4984500;28;20118;-59
2023/09/16 08:43:26;;;;;;;1.65;1.55;;;17.80;99.90;;;;;;4981497;28;20039;-57
2023/09/16 08:46:00;;;;;;;2.00;1.67;;;17.90;99.90;;;;;;4985536;28;20665;-59
2023/09/16 08:48:27;;;;;;;1.58;1.48;;;18.10;99.90;;;;;;4986834;28;20026;-58
2023/09/16 08:50:55;;;;;;;1.23;1.17;;;18.20;99.90;;;;;;4988029;28;20031;-58
2023/09/16 08:53:25;;;;;;;1.40;1.33;;;18.40;99.90;;;;;;4988289;28;20034;-58
2023/09/16 08:55:52;;;;;;;2.42;1.90;;;18.50;99.90;;;;;;4982338;28;20019;-58
2023/09/16 08:58:19;;;;;;;1.23;1.15;;;18.50;99.90;;;;;;4996604;28;20408;-58
2023/09/16 09:00:45;;;;;;;1.27;1.17;;;18.70;99.90;;;;;;4992354;28;20026;-58
2023/09/16 09:03:11;;;;;;;1.08;1.05;;;18.80;99.90;;;;;;4992260;28;20190;-59
2023/09/16 09:05:38;;;;;;;1.33;1.15;;;19.10;99.90;;;;;;4992810;28;20121;-58
2023/09/16 09:08:08;;;;;;;0.90;0.90;;;19.60;99.90;;;;;;4988333;28;20030;-59
2023/09/16 09:10:36;;;;;;;1999.90;999.90;;;20.60;99.90;;;;;;4994311;28;20026;-59
2023/09/16 09:13:03;;;;;;;354.15;205.10;;;21.80;99.90;;;;;;4993213;28;20106;-59
2023/09/16 09:15:30;;;;;;;733.97;175.25;;;23.20;99.90;;;;;;4987173;28;20052;-60
2023/09/16 09:17:58;;;;;;;83.60;27.85;;;24.30;99.90;;;;;;4989717;28;20041;-59
2023/09/16 09:20:28;;;;;;;1.42;1.00;;;25.10;96.60;;;;;;4994290;28;20031;-60
2023/09/16 09:22:56;;;;;;;2.63;1.23;;;25.40;91.00;;;;;;4990156;28;20041;-60
2023/09/16 09:25:27;;;;;;;1.27;1.17;;;25.90;90.40;;;;;;4988613;28;20532;-58
2023/09/16 09:27:53;;;;;;;;;;;25.90;84.30;;;;;;4991906;28;20035;-59
2023/09/16 09:30:24;;;;;;;1.50;1.15;;;25.70;80.80;;;;;;4999638;28;20532;-59
2023/09/16 09:32:50;;;;;;;1.25;1.15;;;25.60;79.10;;;;;;4995998;28;20034;-59
2023/09/16 09:35:15;;;;;;;1.40;1.30;;;25.30;84.80;;;;;;4989955;28;20034;-59
2023/09/16 09:37:41;;;;;;;3.85;1.25;;;25.10;86.20;;;;;;4997296;28;20511;-58
2023/09/16 09:40:10;;;;;;;2.03;1.60;;;24.90;81.90;;;;;;4994914;28;20496;-59
2023/09/16 09:42:44;;;;;;;1.30;1.20;;;24.50;83.10;;;;;;4988680;28;20114;-58
2023/09/16 09:45:10;;;;;;;1.10;1.00;;;24.30;88.00;;;;;;4989230;28;20035;-59
2023/09/16 09:47:40;;;;;;;1.48;1.10;;;24.10;84.40;;;;;;4994536;28;20034;-59
2023/09/16 09:50:07;;;;;;;1.40;1.30;;;23.90;90.90;;;;;;4994235;28;20473;-59
2023/09/16 09:52:34;;;;;;;1.45;1.30;;;23.80;92.00;;;;;;4995528;28;20038;-58
2023/09/16 09:55:00;;;;;;;1.20;1.08;;;23.70;91.70;;;;;;4994785;28;20568;-58
2023/09/16 09:57:27;;;;;;;1.60;1.35;;;23.70;92.20;;;;;;4993897;28;20119;-58
2023/09/16 09:59:54;;;;;;;1.33;1.23;;;23.70;93.50;;;;;;4988128;28;20528;-58
2023/09/16 10:02:26;;;;;;;1.70;1.20;;;23.80;95.60;;;;;;4996873;28;20390;-59
2023/09/16 10:05:01;;;;;;;1.40;1.20;;;23.70;93.00;;;;;;4991265;28;20449;-58
2023/09/16 10:07:30;;;;;;;1.23;1.13;;;23.80;93.60;;;;;;4986864;28;20166;-59
2023/09/16 10:09:56;;;;;;;1.85;1.10;;;23.90;94.00;;;;;;4982649;28;20044;-58
2023/09/16 10:12:22;;;;;;;1.63;1.52;;;23.90;93.50;;;;;;4984052;28;20509;-57
2023/09/16 10:14:48;;;;;;;1.52;1.23;;;23.90;96.50;;;;;;4998876;28;20374;-58
2023/09/16 10:17:15;;;;;;;1.35;1.25;;;24.00;94.90;;;;;;4993407;28;20029;-58
2023/09/16 10:19:42;;;;;;;1.13;1.02;;;24.10;90.50;;;;;;4983082;28;20022;-58
2023/09/16 10:22:08;;;;;;;1.08;0.93;;;24.00;90.30;;;;;;4977442;28;20031;-58
2023/09/16 10:24:34;;;;;;;1.42;1.33;;;24.10;94.60;;;;;;4983371;28;20033;-58
2023/09/16 10:27:07;;;;;;;2.25;1.20;;;24.10;94.30;;;;;;4988036;28;20030;-58
2023/09/16 10:29:33;;;;;;;1.42;1.10;;;24.20;92.20;;;;;;4992167;28;20482;-58
2023/09/16 10:31:58;;;;;;;1.40;1.25;;;24.10;91.80;;;;;;4987432;28;20026;-58
2023/09/16 10:34:24;;;;;;;1.50;1.38;;;24.10;91.70;;;;;;4994931;28;20409;-59
2023/09/16 10:36:50;;;;;;;1.38;1.27;;;24.20;94.30;;;;;;4991191;28;20125;-58
2023/09/16 10:39:17;;;;;;;1.23;1.10;;;24.30;90.40;;;;;;4989168;28;20031;-58
2023/09/16 10:41:45;;;;;;;1.50;1.40;;;24.30;89.70;;;;;;4989074;28;20027;-60
2023/09/16 10:44:12;;;;;;;1.70;1.27;;;24.40;86.00;;;;;;4990230;28;20029;-59
2023/09/16 10:46:38;;;;;;;1.30;1.10;;;24.40;87.20;;;;;;4989206;28;20517;-59
2023/09/16 10:49:04;;;;;;;1.02;0.90;;;24.50;83.80;;;;;;4998229;28;20034;-59
2023/09/16 10:51:37;;;;;;;1.00;0.90;;;24.50;87.80;;;;;;4995093;28;20038;-59
2023/09/16 10:54:33;;;;;;;2.90;1.17;;;24.60;83.60;;;;;;4993470;28;20563;-58
2023/09/16 10:57:07;;;;;;;1.50;1.13;;;24.60;88.40;;;;;;4992221;28;20049;-59
2023/09/16 10:59:35;;;;;;;3.70;1.10;;;24.60;88.70;;;;;;4994913;28;20031;-58
2023/09/16 11:02:11;;;;;;;1.20;1.00;;;24.60;87.20;;;;;;4988918;28;20030;-59
2023/09/16 11:04:37;;;;;;;2.50;1.23;;;24.70;85.90;;;;;;4987845;28;20477;-58
2023/09/16 11:07:04;;;;;;;1.50;1.20;;;24.70;83.80;;;;;;4995366;28;20026;-59
2023/09/16 11:09:29;;;;;;;5.68;1.20;;;24.70;81.90;;;;;;4997825;28;20026;-58
2023/09/16 11:11:56;;;;;;;2.13;1.20;;;24.70;84.50;;;;;;4994524;28;20129;-58
2023/09/16 11:14:22;;;;;;;1.10;1.00;;;24.80;80.20;;;;;;4997558;28;20034;-58
2023/09/16 11:16:50;;;;;;;1.15;1.05;;;24.80;84.10;;;;;;4989272;28;20035;-56
2023/09/16 11:19:25;;;;;;;2.03;1.52;;;24.80;83.30;;;;;;4988847;28;20022;-58
2023/09/16 11:21:54;;;;;;;1.25;1.15;;;24.90;85.70;;;;;;4990766;28;20623;-58
2023/09/16 11:24:20;;;;;;;1.70;1.08;;;25.00;79.20;;;;;;4989645;28;20035;-58
2023/09/16 11:26:48;;;;;;;1.80;1.20;;;25.00;77.30;;;;;;4996887;28;20037;-58
2023/09/16 11:29:22;;;;;;;1.13;1.02;;;25.00;78.00;;;;;;4995602;28;20380;-59
2023/09/16 11:31:48;;;;;;;1.38;1.00;;;25.10;80.00;;;;;;4995067;28;20026;-59
2023/09/16 11:34:17;;;;;;;1.00;0.90;;;25.10;78.60;;;;;;4997915;28;20027;-57
2023/09/16 11:36:47;;;;;;;1.10;1.00;;;25.10;73.50;;;;;;4993718;28;20474;-59
2023/09/16 11:39:15;;;;;;;1.20;1.10;;;25.20;74.40;;;;;;4992447;28;20037;-58
2023/09/16 11:41:41;;;;;;;1.15;0.90;;;25.30;77.00;;;;;;4990632;28;20401;-58
2023/09/16 11:44:08;;;;;;;1.10;1.00;;;25.30;72.20;;;;;;4990633;28;20014;-59
2023/09/16 11:46:34;;;;;;;1.40;1.02;;;25.40;71.90;;;;;;4991904;28;20453;-58
2023/09/16 11:49:05;;;;;;;0.80;0.80;;;25.40;71.50;;;;;;4988823;28;20034;-58
2023/09/16 11:51:33;;;;;;;0.82;0.82;;;25.50;76.00;;;;;;4991219;28;20042;-57
2023/09/16 11:53:59;;;;;;;1.13;1.05;;;25.70;72.20;;;;;;4992636;28;20038;-58
2023/09/16 11:56:27;;;;;;;1.88;0.80;;;25.80;71.90;;;;;;4989985;28;20398;-59
2023/09/16 11:58:54;;;;;;;1.27;1.10;;;25.90;70.10;;;;;;4990416;28;20058;-58
2023/09/16 12:01:28;;;;;;;1.42;1.00;;;26.00;68.70;;;;;;4989982;28;20076;-58
2023/09/16 12:03:55;;;;;;;3.08;0.98;;;26.00;70.90;;;;;;4991500;28;20490;-58
2023/09/16 12:06:25;;;;;;;1.30;0.90;;;26.10;70.10;;;;;;4995160;28;20510;-57
2023/09/16 12:08:53;;;;;;;0.95;0.80;;;26.10;69.70;;;;;;4990294;28;20033;-58
2023/09/16 12:11:20;;;;;;;1.02;0.93;;;26.20;70.40;;;;;;4991416;28;20038;-58
2023/09/16 12:13:45;;;;;;;1.10;0.70;;;26.10;71.70;;;;;;4992660;28;20026;-58
2023/09/16 12:16:11;;;;;;;0.98;0.88;;;26.20;70.60;;;;;;4991052;28;20035;-59
2023/09/16 12:18:37;;;;;;;1.15;0.90;;;26.20;69.10;;;;;;4993683;28;20454;-58
2023/09/16 12:21:05;;;;;;;1.00;0.90;;;26.30;68.50;;;;;;4992062;28;20709;-58
2023/09/16 12:23:31;;;;;;;2.63;1.00;;;26.40;69.40;;;;;;4991554;28;20112;-58
2023/09/16 12:25:58;;;;;;;0.90;0.73;;;26.30;70.70;;;;;;4992466;28;20437;-59
2023/09/16 12:28:24;;;;;;;0.90;0.90;;;26.40;66.30;;;;;;4989559;28;20042;-58
2023/09/16 12:30:52;;;;;;;1.00;0.90;;;26.40;68.40;;;;;;4994176;28;20026;-60
2023/09/16 12:33:36;;;;;;;2.22;0.90;;;26.40;64.80;;;;;;4995694;28;20026;-60
2023/09/16 12:36:03;;;;;;;0.82;0.80;;;26.30;67.10;;;;;;4992681;28;20049;-58